sensor_id;sensor_type;location;lat;lon;timestamp;temperature;humidity
19033;DHT22;9649;51.042;13.804;2023-10-08T00:01:13;19.60;99.90
19033;DHT22;9649;51.042;13.804;2023-10-08T00:06:19;19.60;99.90
19033;DHT22;9649;51.042;13.804;2023-10-08T00:11:30;19.50;99.90
19033;DHT22;9649;51.042;13.804;2023-10-08T00:16:37;19.50;1.00
19033;DHT22;9649;51.042;13.804;2023-10-08T00:21:50;19.50;1.00
19033;DHT22;9649;51.042;13.804;2023-10-08T00:27:12;19.50;1.00
19033;DHT22;9649;51.042;13.804;2023-10-08T00:32:17;19.50;1.00
19033;DHT22;9649;51.042;13.804;2023-10-08T00:37:22;19.40;1.00
19033;DHT22;9649;51.042;13.804;2023-10-08T00:42:31;19.30;1.00
19033;DHT22;9649;51.042;13.804;2023-10-08T00:47:36;19.10;99.90
19033;DHT22;9649;51.042;13.804;2023-10-08T00:52:50;19.10;1.00
19033;DHT22;9649;51.042;13.804;2023-10-08T00:58:02;19.10;1.00
19033;DHT22;9649;51.042;13.804;2023-10-08T01:03:12;19.00;1.00
19033;DHT22;9649;51.042;13.804;2023-10-08T01:08:24;18.70;99.90
19033;DHT22;9649;51.042;13.804;2023-10-08T01:13:38;18.70;1.00
19033;DHT22;9649;51.042;13.804;2023-10-08T01:18:47;18.60;1.00
19033;DHT22;9649;51.042;13.804;2023-10-08T01:23:53;18.30;99.90
19033;DHT22;9649;51.042;13.804;2023-10-08T01:28:57;18.00;1.00
19033;DHT22;9649;51.042;13.804;2023-10-08T01:34:04;17.70;1.00
19033;DHT22;9649;51.042;13.804;2023-10-08T01:39:10;17.50;1.00
19033;DHT22;9649;51.042;13.804;2023-10-08T01:44:19;17.30;70.90
19033;DHT22;9649;51.042;13.804;2023-10-08T01:49:28;17.20;99.90
19033;DHT22;9649;51.042;13.804;2023-10-08T01:54:39;17.00;99.90
19033;DHT22;9649;51.042;13.804;2023-10-08T01:59:50;16.90;99.90
19033;DHT22;9649;51.042;13.804;2023-10-08T02:04:58;16.80;99.90
19033;DHT22;9649;51.042;13.804;2023-10-08T02:10:10;16.50;38.90
19033;DHT22;9649;51.042;13.804;2023-10-08T02:15:23;16.20;1.00
19033;DHT22;9649;51.042;13.804;2023-10-08T02:20:30;15.80;1.00
19033;DHT22;9649;51.042;13.804;2023-10-08T02:25:35;15.40;1.00
19033;DHT22;9649;51.042;13.804;2023-10-08T02:30:45;15.00;1.00
19033;DHT22;9649;51.042;13.804;2023-10-08T02:35:53;14.80;1.00
19033;DHT22;9649;51.042;13.804;2023-10-08T02:41:05;14.60;1.00
19033;DHT22;9649;51.042;13.804;2023-10-08T02:46:09;14.60;29.60
19033;DHT22;9649;51.042;13.804;2023-10-08T02:51:17;14.40;24.20
19033;DHT22;9649;51.042;13.804;2023-10-08T02:56:23;14.40;99.90
19033;DHT22;9649;51.042;13.804;2023-10-08T03:01:26;14.10;99.90
19033;DHT22;9649;51.042;13.804;2023-10-08T03:06:29;14.10;99.90
19033;DHT22;9649;51.042;13.804;2023-10-08T03:11:35;14.10;99.90
19033;DHT22;9649;51.042;13.804;2023-10-08T03:16:39;13.90;99.90
19033;DHT22;9649;51.042;13.804;2023-10-08T03:21:42;13.90;99.90
19033;DHT22;9649;51.042;13.804;2023-10-08T03:26:52;13.70;99.90
19033;DHT22;9649;51.042;13.804;2023-10-08T03:31:57;13.70;99.90
19033;DHT22;9649;51.042;13.804;2023-10-08T03:37:00;13.50;99.90
19033;DHT22;9649;51.042;13.804;2023-10-08T03:42:09;13.20;99.90
19033;DHT22;9649;51.042;13.804;2023-10-08T03:47:14;13.00;99.90
19033;DHT22;9649;51.042;13.804;2023-10-08T03:52:20;12.60;99.90
19033;DHT22;9649;51.042;13.804;2023-10-08T03:57:28;12.30;1.00
19033;DHT22;9649;51.042;13.804;2023-10-08T04:02:43;12.10;58.00
19033;DHT22;9649;51.042;13.804;2023-10-08T04:07:56;11.90;99.90
19033;DHT22;9649;51.042;13.804;2023-10-08T04:13:20;11.80;99.90
19033;DHT22;9649;51.042;13.804;2023-10-08T04:18:22;11.70;99.90
19033;DHT22;9649;51.042;13.804;2023-10-08T04:23:26;11.60;99.90
19033;DHT22;9649;51.042;13.804;2023-10-08T04:28:30;11.50;99.90
19033;DHT22;9649;51.042;13.804;2023-10-08T04:33:36;11.50;99.90
19033;DHT22;9649;51.042;13.804;2023-10-08T04:38:40;11.40;99.90
19033;DHT22;9649;51.042;13.804;2023-10-08T04:43:45;11.40;99.90
19033;DHT22;9649;51.042;13.804;2023-10-08T04:48:51;11.30;99.90
19033;DHT22;9649;51.042;13.804;2023-10-08T04:53:54;11.20;99.90
19033;DHT22;9649;51.042;13.804;2023-10-08T04:58:58;11.10;99.90
19033;DHT22;9649;51.042;13.804;2023-10-08T05:04:01;11.00;99.90
19033;DHT22;9649;51.042;13.804;2023-10-08T05:09:27;10.90;99.90
19033;DHT22;9649;51.042;13.804;2023-10-08T05:14:48;11.00;99.90
19033;DHT22;9649;51.042;13.804;2023-10-08T05:20:19;11.00;99.90
19033;DHT22;9649;51.042;13.804;2023-10-08T05:25:32;11.10;99.90
19033;DHT22;9649;51.042;13.804;2023-10-08T05:30:43;11.00;99.90
19033;DHT22;9649;51.042;13.804;2023-10-08T05:35:55;10.90;99.90
19033;DHT22;9649;51.042;13.804;2023-10-08T05:41:05;11.00;99.90
19033;DHT22;9649;51.042;13.804;2023-10-08T05:46:20;11.10;99.90
19033;DHT22;9649;51.042;13.804;2023-10-08T05:51:38;11.10;99.90
19033;DHT22;9649;51.042;13.804;2023-10-08T05:57:07;11.20;99.90
19033;DHT22;9649;51.042;13.804;2023-10-08T06:02:29;11.10;99.90
19033;DHT22;9649;51.042;13.804;2023-10-08T06:07:51;10.80;99.90
19033;DHT22;9649;51.042;13.804;2023-10-08T06:13:14;10.70;99.90
19033;DHT22;9649;51.042;13.804;2023-10-08T06:18:21;10.70;99.90
19033;DHT22;9649;51.042;13.804;2023-10-08T06:23:29;10.40;99.90
19033;DHT22;9649;51.042;13.804;2023-10-08T06:28:38;10.40;99.90
19033;DHT22;9649;51.042;13.804;2023-10-08T06:33:43;10.50;99.90
19033;DHT22;9649;51.042;13.804;2023-10-08T06:38:46;10.50;99.90
19033;DHT22;9649;51.042;13.804;2023-10-08T06:43:51;10.70;99.90
19033;DHT22;9649;51.042;13.804;2023-10-08T06:49:08;10.80;99.90
19033;DHT22;9649;51.042;13.804;2023-10-08T06:54:15;10.90;99.90
19033;DHT22;9649;51.042;13.804;2023-10-08T06:59:19;11.00;99.90
19033;DHT22;9649;51.042;13.804;2023-10-08T07:04:26;11.10;99.90
19033;DHT22;9649;51.042;13.804;2023-10-08T07:09:31;11.10;99.90
19033;DHT22;9649;51.042;13.804;2023-10-08T07:14:37;11.20;99.90
19033;DHT22;9649;51.042;13.804;2023-10-08T07:19:42;11.40;99.90
19033;DHT22;9649;51.042;13.804;2023-10-08T07:24:49;11.40;99.90
19033;DHT22;9649;51.042;13.804;2023-10-08T07:29:53;11.50;99.90
19033;DHT22;9649;51.042;13.804;2023-10-08T07:35:00;11.40;99.90
19033;DHT22;9649;51.042;13.804;2023-10-08T07:40:27;11.40;99.90
19033;DHT22;9649;51.042;13.804;2023-10-08T07:45:32;11.60;99.90
19033;DHT22;9649;51.042;13.804;2023-10-08T07:50:43;11.80;99.90
19033;DHT22;9649;51.042;13.804;2023-10-08T07:55:47;11.80;99.90
19033;DHT22;9649;51.042;13.804;2023-10-08T08:00:50;11.90;99.90
19033;DHT22;9649;51.042;13.804;2023-10-08T08:05:57;12.40;99.90
19033;DHT22;9649;51.042;13.804;2023-10-08T08:11:02;12.40;99.90
19033;DHT22;9649;51.042;13.804;2023-10-08T08:16:15;12.70;99.90
19033;DHT22;9649;51.042;13.804;2023-10-08T08:21:24;12.60;99.90
19033;DHT22;9649;51.042;13.804;2023-10-08T08:26:27;12.40;99.90
19033;DHT22;9649;51.042;13.804;2023-10-08T08:31:31;12.20;99.90
19033;DHT22;9649;51.042;13.804;2023-10-08T08:36:38;12.20;99.90
19033;DHT22;9649;51.042;13.804;2023-10-08T08:41:47;11.90;99.90
19033;DHT22;9649;51.042;13.804;2023-10-08T08:46:50;11.70;99.90
19033;DHT22;9649;51.042;13.804;2023-10-08T08:51:57;11.70;99.90
19033;DHT22;9649;51.042;13.804;2023-10-08T08:57:03;12.10;99.90
19033;DHT22;9649;51.042;13.804;2023-10-08T09:02:08;12.30;99.90
19033;DHT22;9649;51.042;13.804;2023-10-08T09:07:20;12.40;99.90
19033;DHT22;9649;51.042;13.804;2023-10-08T09:12:24;12.60;99.90
19033;DHT22;9649;51.042;13.804;2023-10-08T09:17:29;12.60;99.90
19033;DHT22;9649;51.042;13.804;2023-10-08T09:22:33;12.70;99.90
19033;DHT22;9649;51.042;13.804;2023-10-08T09:27:37;12.70;99.90
19033;DHT22;9649;51.042;13.804;2023-10-08T09:32:39;12.60;99.90
19033;DHT22;9649;51.042;13.804;2023-10-08T09:37:46;12.60;99.90
19033;DHT22;9649;51.042;13.804;2023-10-08T09:42:50;12.90;99.90
19033;DHT22;9649;51.042;13.804;2023-10-08T09:47:54;13.40;99.90
19033;DHT22;9649;51.042;13.804;2023-10-08T09:53:01;14.00;99.90
19033;DHT22;9649;51.042;13.804;2023-10-08T09:58:10;14.10;99.90
19033;DHT22;9649;51.042;13.804;2023-10-08T10:03:16;14.10;1.00
19033;DHT22;9649;51.042;13.804;2023-10-08T10:08:21;14.80;1.00
19033;DHT22;9649;51.042;13.804;2023-10-08T10:13:28;18.10;99.90
19033;DHT22;9649;51.042;13.804;2023-10-08T10:18:33;22.70;1.00
19033;DHT22;9649;51.042;13.804;2023-10-08T10:23:41;30.40;1.00
19033;DHT22;9649;51.042;13.804;2023-10-08T10:28:46;31.40;99.90
19033;DHT22;9649;51.042;13.804;2023-10-08T10:34:13;33.00;99.90
19033;DHT22;9649;51.042;13.804;2023-10-08T10:39:23;31.00;99.90
19033;DHT22;9649;51.042;13.804;2023-10-08T10:44:30;24.70;99.90
19033;DHT22;9649;51.042;13.804;2023-10-08T10:49:37;26.30;99.90
19033;DHT22;9649;51.042;13.804;2023-10-08T10:54:51;23.80;99.90
19033;DHT22;9649;51.042;13.804;2023-10-08T11:00:02;22.90;99.90
19033;DHT22;9649;51.042;13.804;2023-10-08T11:05:22;23.10;99.90
19033;DHT22;9649;51.042;13.804;2023-10-08T11:10:32;21.30;1.00
19033;DHT22;9649;51.042;13.804;2023-10-08T11:15:36;19.40;1.00
19033;DHT22;9649;51.042;13.804;2023-10-08T11:20:44;18.70;99.90
19033;DHT22;9649;51.042;13.804;2023-10-08T11:25:55;18.40;99.90
19033;DHT22;9649;51.042;13.804;2023-10-08T11:31:02;21.10;1.00
19033;DHT22;9649;51.042;13.804;2023-10-08T11:36:10;22.80;1.00
19033;DHT22;9649;51.042;13.804;2023-10-08T11:41:22;22.30;1.00
19033;DHT22;9649;51.042;13.804;2023-10-08T11:46:26;24.40;1.00
19033;DHT22;9649;51.042;13.804;2023-10-08T11:51:31;31.10;99.90
19033;DHT22;9649;51.042;13.804;2023-10-08T11:56:37;32.80;99.90
19033;DHT22;9649;51.042;13.804;2023-10-08T12:01:42;34.50;99.90
19033;DHT22;9649;51.042;13.804;2023-10-08T12:06:48;35.40;99.90
19033;DHT22;9649;51.042;13.804;2023-10-08T12:12:06;35.80;90.40
19033;DHT22;9649;51.042;13.804;2023-10-08T12:17:11;31.90;91.10
19033;DHT22;9649;51.042;13.804;2023-10-08T12:22:15;25.30;87.80
19033;DHT22;9649;51.042;13.804;2023-10-08T12:27:27;22.90;99.90
19033;DHT22;9649;51.042;13.804;2023-10-08T12:32:31;22.60;99.90
19033;DHT22;9649;51.042;13.804;2023-10-08T12:37:35;23.00;99.90
19033;DHT22;9649;51.042;13.804;2023-10-08T12:42:39;26.60;99.90
19033;DHT22;9649;51.042;13.804;2023-10-08T12:47:46;26.00;99.90
19033;DHT22;9649;51.042;13.804;2023-10-08T12:52:51;23.00;99.90
19033;DHT22;9649;51.042;13.804;2023-10-08T12:57:58;21.40;99.90
19033;DHT22;9649;51.042;13.804;2023-10-08T13:03:10;22.70;99.90
19033;DHT22;9649;51.042;13.804;2023-10-08T13:08:17;24.70;99.90
19033;DHT22;9649;51.042;13.804;2023-10-08T13:13:22;28.30;99.90
19033;DHT22;9649;51.042;13.804;2023-10-08T13:18:29;28.50;99.90
19033;DHT22;9649;51.042;13.804;2023-10-08T13:23:32;23.50;99.90
19033;DHT22;9649;51.042;13.804;2023-10-08T13:28:38;21.50;99.90
19033;DHT22;9649;51.042;13.804;2023-10-08T13:33:42;19.90;99.90
19033;DHT22;9649;51.042;13.804;2023-10-08T13:38:46;20.70;99.90
19033;DHT22;9649;51.042;13.804;2023-10-08T13:43:51;26.00;99.90
19033;DHT22;9649;51.042;13.804;2023-10-08T13:48:54;29.50;99.90
19033;DHT22;9649;51.042;13.804;2023-10-08T13:53:59;28.30;99.90
19033;DHT22;9649;51.042;13.804;2023-10-08T13:59:07;28.20;97.60
19033;DHT22;9649;51.042;13.804;2023-10-08T14:04:15;28.90;99.90
19033;DHT22;9649;51.042;13.804;2023-10-08T14:09:22;30.00;93.70
19033;DHT22;9649;51.042;13.804;2023-10-08T14:14:36;31.00;76.10
19033;DHT22;9649;51.042;13.804;2023-10-08T14:19:51;28.40;72.50
19033;DHT22;9649;51.042;13.804;2023-10-08T14:25:01;25.30;85.50
19033;DHT22;9649;51.042;13.804;2023-10-08T14:30:15;23.80;97.30
19033;DHT22;9649;51.042;13.804;2023-10-08T14:35:22;21.50;99.90
19033;DHT22;9649;51.042;13.804;2023-10-08T14:40:43;20.20;99.90
19033;DHT22;9649;51.042;13.804;2023-10-08T14:46:05;23.00;99.90
19033;DHT22;9649;51.042;13.804;2023-10-08T14:51:11;24.60;99.90
19033;DHT22;9649;51.042;13.804;2023-10-08T14:56:21;22.80;99.90
19033;DHT22;9649;51.042;13.804;2023-10-08T15:01:26;20.40;99.90
19033;DHT22;9649;51.042;13.804;2023-10-08T15:06:31;19.50;99.90
19033;DHT22;9649;51.042;13.804;2023-10-08T15:11:34;19.00;1.00
19033;DHT22;9649;51.042;13.804;2023-10-08T15:16:39;18.50;1.00
19033;DHT22;9649;51.042;13.804;2023-10-08T15:21:42;18.40;1.00
19033;DHT22;9649;51.042;13.804;2023-10-08T15:26:45;20.10;1.00
19033;DHT22;9649;51.042;13.804;2023-10-08T15:31:50;20.00;1.00
19033;DHT22;9649;51.042;13.804;2023-10-08T15:36:53;18.80;1.00
19033;DHT22;9649;51.042;13.804;2023-10-08T15:41:56;18.40;1.00
19033;DHT22;9649;51.042;13.804;2023-10-08T15:47:00;18.70;1.00
19033;DHT22;9649;51.042;13.804;2023-10-08T15:52:03;18.10;1.00
19033;DHT22;9649;51.042;13.804;2023-10-08T15:57:07;16.90;99.90
19033;DHT22;9649;51.042;13.804;2023-10-08T16:02:11;16.20;1.00
19033;DHT22;9649;51.042;13.804;2023-10-08T16:07:15;15.60;1.00
19033;DHT22;9649;51.042;13.804;2023-10-08T16:12:18;15.00;1.00
19033;DHT22;9649;51.042;13.804;2023-10-08T16:17:23;14.60;1.00
19033;DHT22;9649;51.042;13.804;2023-10-08T16:22:26;14.30;1.00
19033;DHT22;9649;51.042;13.804;2023-10-08T16:27:30;14.20;99.90
19033;DHT22;9649;51.042;13.804;2023-10-08T16:32:37;14.10;99.90
19033;DHT22;9649;51.042;13.804;2023-10-08T16:37:40;14.00;99.90
19033;DHT22;9649;51.042;13.804;2023-10-08T16:42:44;13.80;1.00
19033;DHT22;9649;51.042;13.804;2023-10-08T16:47:50;13.70;1.00
19033;DHT22;9649;51.042;13.804;2023-10-08T16:52:53;13.40;99.90
19033;DHT22;9649;51.042;13.804;2023-10-08T16:57:59;13.20;1.00
19033;DHT22;9649;51.042;13.804;2023-10-08T17:03:04;13.00;1.00
19033;DHT22;9649;51.042;13.804;2023-10-08T17:08:07;12.90;1.00
19033;DHT22;9649;51.042;13.804;2023-10-08T17:13:11;12.80;1.00
19033;DHT22;9649;51.042;13.804;2023-10-08T17:18:19;12.70;1.00
19033;DHT22;9649;51.042;13.804;2023-10-08T17:23:22;12.60;1.00
19033;DHT22;9649;51.042;13.804;2023-10-08T17:28:26;12.70;1.00
19033;DHT22;9649;51.042;13.804;2023-10-08T17:33:32;12.90;1.00
19033;DHT22;9649;51.042;13.804;2023-10-08T17:38:36;13.00;1.00
19033;DHT22;9649;51.042;13.804;2023-10-08T17:43:39;13.20;1.00
19033;DHT22;9649;51.042;13.804;2023-10-08T17:48:43;13.10;1.00
19033;DHT22;9649;51.042;13.804;2023-10-08T17:53:46;13.20;1.00
19033;DHT22;9649;51.042;13.804;2023-10-08T17:58:49;13.20;1.00
19033;DHT22;9649;51.042;13.804;2023-10-08T18:03:54;13.20;1.00
19033;DHT22;9649;51.042;13.804;2023-10-08T18:08:57;13.20;99.90
19033;DHT22;9649;51.042;13.804;2023-10-08T18:14:01;13.40;99.90
19033;DHT22;9649;51.042;13.804;2023-10-08T18:19:05;13.70;1.00
19033;DHT22;9649;51.042;13.804;2023-10-08T18:24:10;13.80;1.00
19033;DHT22;9649;51.042;13.804;2023-10-08T18:29:15;13.60;1.00
19033;DHT22;9649;51.042;13.804;2023-10-08T18:34:19;13.50;99.90
19033;DHT22;9649;51.042;13.804;2023-10-08T18:39:22;13.30;1.00
19033;DHT22;9649;51.042;13.804;2023-10-08T18:44:25;13.40;1.00
19033;DHT22;9649;51.042;13.804;2023-10-08T18:49:30;13.40;1.00
19033;DHT22;9649;51.042;13.804;2023-10-08T18:54:33;13.30;1.00
19033;DHT22;9649;51.042;13.804;2023-10-08T18:59:38;13.10;1.00
19033;DHT22;9649;51.042;13.804;2023-10-08T19:04:42;13.10;1.00
19033;DHT22;9649;51.042;13.804;2023-10-08T19:09:45;13.00;1.00
19033;DHT22;9649;51.042;13.804;2023-10-08T19:14:49;13.00;1.00
19033;DHT22;9649;51.042;13.804;2023-10-08T19:19:53;12.90;1.00
19033;DHT22;9649;51.042;13.804;2023-10-08T19:24:56;12.90;1.00
19033;DHT22;9649;51.042;13.804;2023-10-08T19:29:58;13.00;1.00
19033;DHT22;9649;51.042;13.804;2023-10-08T19:35:03;12.90;1.00
19033;DHT22;9649;51.042;13.804;2023-10-08T19:40:08;12.80;1.00
19033;DHT22;9649;51.042;13.804;2023-10-08T19:45:14;12.80;1.00
19033;DHT22;9649;51.042;13.804;2023-10-08T19:50:20;12.70;1.00
19033;DHT22;9649;51.042;13.804;2023-10-08T19:55:24;12.60;1.00
19033;DHT22;9649;51.042;13.804;2023-10-08T20:00:28;12.40;1.00
19033;DHT22;9649;51.042;13.804;2023-10-08T20:05:43;12.40;1.00
19033;DHT22;9649;51.042;13.804;2023-10-08T20:10:55;12.50;1.00
19033;DHT22;9649;51.042;13.804;2023-10-08T20:16:02;12.50;1.00
19033;DHT22;9649;51.042;13.804;2023-10-08T20:21:12;12.30;1.00
19033;DHT22;9649;51.042;13.804;2023-10-08T20:26:16;12.30;1.00
19033;DHT22;9649;51.042;13.804;2023-10-08T20:31:23;12.40;1.00
19033;DHT22;9649;51.042;13.804;2023-10-08T20:36:30;12.50;1.00
19033;DHT22;9649;51.042;13.804;2023-10-08T20:41:33;12.60;1.00
19033;DHT22;9649;51.042;13.804;2023-10-08T20:46:36;12.50;1.00
19033;DHT22;9649;51.042;13.804;2023-10-08T20:51:43;12.50;1.00
19033;DHT22;9649;51.042;13.804;2023-10-08T20:56:46;12.40;1.00
19033;DHT22;9649;51.042;13.804;2023-10-08T21:01:50;12.20;1.00
19033;DHT22;9649;51.042;13.804;2023-10-08T21:06:57;12.30;1.00
19033;DHT22;9649;51.042;13.804;2023-10-08T21:11:59;12.20;1.00
19033;DHT22;9649;51.042;13.804;2023-10-08T21:17:03;12.20;1.00
19033;DHT22;9649;51.042;13.804;2023-10-08T21:22:07;12.30;1.00
19033;DHT22;9649;51.042;13.804;2023-10-08T21:27:10;12.20;1.00
19033;DHT22;9649;51.042;13.804;2023-10-08T21:32:13;12.10;1.00
19033;DHT22;9649;51.042;13.804;2023-10-08T21:37:18;12.30;1.00
19033;DHT22;9649;51.042;13.804;2023-10-08T21:42:21;12.30;1.00
19033;DHT22;9649;51.042;13.804;2023-10-08T21:47:24;12.20;1.00
19033;DHT22;9649;51.042;13.804;2023-10-08T21:52:28;12.10;1.00
19033;DHT22;9649;51.042;13.804;2023-10-08T21:57:31;12.00;1.00
19033;DHT22;9649;51.042;13.804;2023-10-08T22:02:44;12.00;1.00
19033;DHT22;9649;51.042;13.804;2023-10-08T22:07:49;12.00;1.00
19033;DHT22;9649;51.042;13.804;2023-10-08T22:12:52;12.00;1.00
19033;DHT22;9649;51.042;13.804;2023-10-08T22:17:57;12.10;1.00
19033;DHT22;9649;51.042;13.804;2023-10-08T22:23:06;12.00;1.00
19033;DHT22;9649;51.042;13.804;2023-10-08T22:28:09;12.10;1.00
19033;DHT22;9649;51.042;13.804;2023-10-08T22:33:13;12.00;1.00
19033;DHT22;9649;51.042;13.804;2023-10-08T22:38:19;11.90;1.00
19033;DHT22;9649;51.042;13.804;2023-10-08T22:43:24;11.80;1.00
19033;DHT22;9649;51.042;13.804;2023-10-08T22:48:32;11.90;1.00
19033;DHT22;9649;51.042;13.804;2023-10-08T22:53:46;11.90;1.00
19033;DHT22;9649;51.042;13.804;2023-10-08T22:58:48;11.90;1.00
19033;DHT22;9649;51.042;13.804;2023-10-08T23:03:51;12.00;1.00
19033;DHT22;9649;51.042;13.804;2023-10-08T23:08:56;11.90;1.00
19033;DHT22;9649;51.042;13.804;2023-10-08T23:14:01;11.90;1.00
19033;DHT22;9649;51.042;13.804;2023-10-08T23:19:05;11.90;1.00
19033;DHT22;9649;51.042;13.804;2023-10-08T23:24:09;11.90;1.00
19033;DHT22;9649;51.042;13.804;2023-10-08T23:29:12;11.80;1.00
19033;DHT22;9649;51.042;13.804;2023-10-08T23:34:17;11.80;1.00
19033;DHT22;9649;51.042;13.804;2023-10-08T23:39:24;11.80;1.00
19033;DHT22;9649;51.042;13.804;2023-10-08T23:44:37;11.90;1.00
19033;DHT22;9649;51.042;13.804;2023-10-08T23:49:40;11.90;1.00
19033;DHT22;9649;51.042;13.804;2023-10-08T23:55:04;11.90;1.00
